Airfield :
LOGIN :

Register | Disclaimer

   EN    FR    IT 

 










Legend :    VFR   Marginal VFR   IFR   Intensive IFR   Very Intensive IFR
Visi :
Ceiling :
>= 8 km
>= 3000ft
5 to 8 km
1000 to 3000 ft
1500m to 5 km
500 to 1000 ft
800 to 1500m
200 to 500 ft
< 800m
< 200 ft
Symbols :   Thunderstorms  Fog  Heavy snow  Heavy precipitations  Wind > 20 kt
SIGMETs :     Misc.  Thunderstorms  Icing  Turbulence  Mountain Waves  Volcanic Ashes






- Airport Elevation : -11 ft
- IATA code : AMS


EHAM - Amsterdam Schiphol

CURRENT METAR :
  • 280425Z 20007KT 9999 FEW009 BKN017 05/04 Q1019 BECMG BKN012

EXPIRED METARs :
  • 280355Z 21006KT 9999 BKN012 BKN018 05/04 Q1019 TEMPO BKN018
  • 280325Z 21007KT 9999 FEW010 BKN017 05/04 Q1019 TEMPO BKN014
  • 280255Z 20009KT 9999 FEW010 BKN014 05/04 Q1019 NOSIG
  • 280225Z 20008KT 9999 FEW012 BKN015 05/03 Q1019 BECMG BKN012
  • 280155Z 19007KT 9999 BKN017 04/03 Q1019 BECMG BKN014
  • 280125Z 19007KT 9999 FEW018 BKN044 04/02 Q1019 BECMG BKN018
  • 280055Z 19006KT 9999 FEW018 SCT047 02/01 Q1019 NOSIG
  • 280025Z 19005KT 9999 FEW018 SCT046 02/01 Q1019 NOSIG
  • 272355Z 19006KT 9999 FEW018 03/01 Q1019 NOSIG

TAF TAF EHAM
Valid from the 28 at 00:00 until the 29 at 06:00 UTC


272320Z 2800/2906 20006KT CAVOK
BECMG 2802/2805 SCT014 BKN017
PROB40
TEMPO 2805/2814 4000 DZ BKN008
BECMG 2813/2816 19012KT SCT018 BKN030
PROB40 2818/2821 SCT008 BKN014
BECMG 2903/2906 7000 RA SCT008 BKN012



MET'MAP, your aeronautical weather chart ! - Copyright ORBIFLY December 2007 - Disclaimer

ORBIFLY MET'MAP TEAM :

Programming & Development : Alexandra Zaïnal
Original concept : Baudouin d'Aumeries
Technical & hardware support : Manuel Goepfert
Assistance : Marc-Olivier Méhu




SOURCES & CREDITS :

   NOAA